createdAt,value
2023-03-27T00:01:18.330Z,100019.19
2023-03-27T00:04:21.602Z,100028.88
2023-03-27T00:07:26.392Z,100032.44
2023-03-27T00:10:31.024Z,100030.69
2023-03-27T00:13:34.488Z,100042.06
2023-03-27T00:16:38.063Z,100045.06
2023-03-27T00:19:41.167Z,100048.81
2023-03-27T00:22:45.870Z,100056.44
2023-03-27T00:25:52.584Z,100054.13
2023-03-27T00:28:55.726Z,100070.69
2023-03-27T00:31:58.700Z,100069.25
2023-03-27T00:35:01.805Z,100074.47
2023-03-27T00:38:07.704Z,100084.97
2023-03-27T00:41:10.916Z,100093.59
2023-03-27T00:44:31.146Z,100104.06
2023-03-27T00:47:39.767Z,100104.66
2023-03-27T00:50:46.656Z,100102.41
2023-03-27T00:53:52.644Z,100104.22
2023-03-27T00:56:59.052Z,100092.94
2023-03-27T01:00:09.477Z,100101.72
2023-03-27T01:03:14.268Z,100107.09
2023-03-27T01:06:18.804Z,100111.50
2023-03-27T01:09:27.067Z,100108.78
2023-03-27T01:12:38.965Z,100118.19
2023-03-27T01:15:54.507Z,100123.41
2023-03-27T01:19:29.130Z,100122.72
2023-03-27T01:23:03.823Z,100131.25
2023-03-27T01:26:40.057Z,100143.38
2023-03-27T01:30:00.811Z,100146.00
2023-03-27T01:34:03.542Z,100152.16
2023-03-27T01:37:52.969Z,100156.09
2023-03-27T01:41:02.525Z,100165.31
2023-03-27T01:44:14.214Z,100166.38
2023-03-27T01:47:28.957Z,100171.69
2023-03-27T01:50:39.968Z,100175.72
2023-03-27T01:53:48.160Z,100180.91
2023-03-27T01:57:02.527Z,100182.88
2023-03-27T02:00:19.421Z,100178.41
2023-03-27T02:03:28.210Z,100181.59
2023-03-27T02:06:34.345Z,100190.91
2023-03-27T02:09:42.020Z,100192.66
2023-03-27T02:12:50.259Z,100201.50
2023-03-27T02:15:54.739Z,100194.81
2023-03-27T02:19:03.068Z,100198.47
2023-03-27T02:22:07.896Z,100207.38
2023-03-27T02:25:31.700Z,100218.88
2023-03-27T02:28:58.282Z,100213.28
2023-03-27T02:32:14.299Z,100227.28
2023-03-27T02:35:29.470Z,100233.63
2023-03-27T02:38:41.766Z,100244.06
2023-03-27T02:41:51.968Z,100238.16
2023-03-27T02:45:17.398Z,100255.53
2023-03-27T02:48:29.473Z,100251.41
2023-03-27T02:51:43.717Z,100259.41
2023-03-27T02:54:54.400Z,100263.91
2023-03-27T02:58:02.258Z,100285.53
2023-03-27T03:01:27.600Z,100283.72
2023-03-27T03:04:47.843Z,100282.06
2023-03-27T03:07:58.244Z,100291.63
2023-03-27T03:11:04.577Z,100283.16
2023-03-27T03:14:07.553Z,100294.28
2023-03-27T03:17:12.047Z,100300.25
2023-03-27T03:20:17.042Z,100304.50
2023-03-27T03:23:20.013Z,100315.19
2023-03-27T03:26:23.191Z,100327.44
2023-03-27T03:29:35.525Z,100329.31
2023-03-27T03:33:03.278Z,100336.56
2023-03-27T03:36:07.517Z,100332.66
2023-03-27T03:39:13.043Z,100344.81
2023-03-27T03:42:22.456Z,100356.84
2023-03-27T03:45:27.780Z,100356.34
2023-03-27T03:48:32.144Z,100360.66
2023-03-27T03:51:36.302Z,100369.19
2023-03-27T03:54:40.408Z,100364.28
2023-03-27T03:57:48.269Z,100367.88
2023-03-27T04:00:58.547Z,100361.97
2023-03-27T04:04:12.774Z,100368.06
2023-03-27T04:07:36.119Z,100378.41
2023-03-27T04:10:57.400Z,100371.59
2023-03-27T04:14:36.347Z,100387.88
2023-03-27T04:17:48.805Z,100393.16
2023-03-27T04:20:54.428Z,100393.16
2023-03-27T04:24:02.662Z,100391.47
2023-03-27T04:27:19.209Z,100395.88
2023-03-27T04:30:38.694Z,100405.25
2023-03-27T04:33:51.873Z,100408.84
2023-03-27T04:37:18.423Z,100407.94
2023-03-27T04:40:38.944Z,100417.38
2023-03-27T04:43:42.166Z,100418.25
2023-03-27T04:46:45.482Z,100419.13
2023-03-27T04:49:50.832Z,100425.84
2023-03-27T04:53:02.025Z,100426.84
2023-03-27T04:56:12.436Z,100437.91
2023-03-27T04:59:18.465Z,100442.41
2023-03-27T05:02:34.394Z,100446.63
2023-03-27T05:05:50.482Z,100445.66
2023-03-27T05:08:55.007Z,100453.13
2023-03-27T05:12:06.751Z,100471.06
2023-03-27T05:15:18.090Z,100470.09
2023-03-27T05:18:22.312Z,100470.09
2023-03-27T05:21:27.321Z,100482.91
2023-03-27T05:24:33.341Z,100487.22
2023-03-27T05:27:36.489Z,100475.34
2023-03-27T05:30:42.151Z,100489.13
2023-03-27T05:33:51.652Z,100498.56
2023-03-27T05:36:57.864Z,100498.63
2023-03-27T05:40:05.936Z,100499.53
2023-03-27T05:43:09.201Z,100503.09
2023-03-27T05:46:13.722Z,100517.72
2023-03-27T05:49:28.781Z,100523.63
2023-03-27T05:52:40.911Z,100525.41
2023-03-27T05:55:45.858Z,100530.75
2023-03-27T05:58:48.820Z,100536.09
2023-03-27T06:01:52.758Z,100540.31
2023-03-27T06:05:01.262Z,100549.50
2023-03-27T06:08:11.613Z,100554.44
2023-03-27T06:11:19.115Z,100559.25
2023-03-27T06:14:23.858Z,100562.28
2023-03-27T06:17:48.433Z,100572.28
2023-03-27T06:20:52.959Z,100585.66
2023-03-27T06:23:56.845Z,100577.63
2023-03-27T06:27:01.128Z,100574.81
2023-03-27T06:30:11.111Z,100582.00
2023-03-27T06:33:16.868Z,100581.72
2023-03-27T06:36:20.574Z,100574.75
2023-03-27T06:39:27.268Z,100577.09
2023-03-27T06:42:36.925Z,100583.06
2023-03-27T06:46:00.088Z,100594.84
2023-03-27T06:49:38.087Z,100591.81
2023-03-27T06:52:54.508Z,100595.22
2023-03-27T06:56:14.805Z,100607.53
2023-03-27T06:59:48.855Z,100613.69
2023-03-27T07:02:58.005Z,100614.78
2023-03-27T07:06:20.948Z,100627.13
2023-03-27T07:09:30.476Z,100615.94
2023-03-27T07:12:40.533Z,100621.19
2023-03-27T07:15:45.435Z,100629.81
2023-03-27T07:18:48.435Z,100624.16
2023-03-27T07:21:51.405Z,100623.28
2023-03-27T07:24:54.358Z,100632.53
2023-03-27T07:28:00.483Z,100614.53
2023-03-27T07:31:25.964Z,100628.03
2023-03-27T07:34:35.237Z,100629.53
2023-03-27T07:37:55.016Z,100633.19
2023-03-27T07:41:13.728Z,100644.22
2023-03-27T07:44:37.195Z,100638.84
2023-03-27T07:47:45.994Z,100640.59
2023-03-27T07:50:49.008Z,100646.19
2023-03-27T07:53:58.347Z,100639.28
2023-03-27T07:57:07.476Z,100639.09
2023-03-27T08:00:32.564Z,100646.91
2023-03-27T08:03:47.298Z,100645.00
2023-03-27T08:06:54.671Z,100640.25
2023-03-27T08:09:59.912Z,100640.78
2023-03-27T08:13:03.936Z,100638.84
2023-03-27T08:16:10.416Z,100644.44
2023-03-27T08:19:19.595Z,100642.69
2023-03-27T08:22:27.291Z,100642.97
2023-03-27T08:25:53.147Z,100652.81
2023-03-27T08:29:00.367Z,100660.81
2023-03-27T08:32:09.531Z,100651.72
2023-03-27T08:35:14.440Z,100659.63
2023-03-27T08:38:25.982Z,100658.00
2023-03-27T08:41:55.104Z,100662.13
2023-03-27T08:45:20.922Z,100656.88
2023-03-27T08:48:33.581Z,100663.28
2023-03-27T08:51:47.023Z,100680.72
2023-03-27T08:54:58.293Z,100680.16
2023-03-27T08:58:20.188Z,100681.63
2023-03-27T09:01:31.154Z,100684.41
2023-03-27T09:04:49.384Z,100684.69
2023-03-27T09:08:05.143Z,100695.22
2023-03-27T09:11:25.077Z,100701.97
2023-03-27T09:14:38.650Z,100698.00
2023-03-27T09:17:49.256Z,100696.78
2023-03-27T09:20:56.680Z,100698.53
2023-03-27T09:24:08.585Z,100700.28
2023-03-27T09:27:32.635Z,100705.25
2023-03-27T09:31:01.873Z,100699.00
2023-03-27T09:34:16.685Z,100695.47
2023-03-27T09:37:22.003Z,100710.56
2023-03-27T09:40:33.895Z,100707.06
2023-03-27T09:43:43.370Z,100716.22
2023-03-27T09:46:49.140Z,100723.94
2023-03-27T09:49:57.544Z,100720.22
2023-03-27T09:53:19.012Z,100710.00
2023-03-27T09:56:51.759Z,100711.56
2023-03-27T09:59:59.543Z,100716.81
2023-03-27T10:03:08.749Z,100723.53
2023-03-27T10:06:26.080Z,100731.69
2023-03-27T10:09:41.022Z,100736.09
2023-03-27T10:12:53.085Z,100723.81
2023-03-27T10:16:01.976Z,100717.06
2023-03-27T10:19:24.242Z,100713.91
2023-03-27T10:22:30.807Z,100721.91
2023-03-27T10:25:38.046Z,100714.88
2023-03-27T10:29:16.559Z,100722.06
2023-03-27T10:32:49.505Z,100728.31
2023-03-27T10:36:12.561Z,100747.56
2023-03-27T10:39:17.081Z,100735.84
2023-03-27T10:42:57.079Z,100740.63
2023-03-27T10:46:04.962Z,100737.97
2023-03-27T10:49:24.321Z,100733.66
2023-03-27T10:52:38.210Z,100737.72
2023-03-27T10:56:02.412Z,100751.75
2023-03-27T10:59:23.276Z,100751.22
2023-03-27T11:02:38.532Z,100770.78
2023-03-27T11:05:46.626Z,100763.13
2023-03-27T11:09:06.125Z,100760.13
2023-03-27T11:12:15.553Z,100747.44
2023-03-27T11:15:31.796Z,100743.88
2023-03-27T11:18:40.234Z,100739.88
2023-03-27T11:21:49.520Z,100735.72
2023-03-27T11:25:06.513Z,100732.66
2023-03-27T11:28:21.002Z,100740.13
2023-03-27T11:31:38.276Z,100729.38
2023-03-27T11:34:49.056Z,100731.41
2023-03-27T11:38:19.161Z,100742.72
2023-03-27T11:41:26.932Z,100746.56
2023-03-27T11:44:30.644Z,100745.06
2023-03-27T11:48:10.686Z,100745.25
2023-03-27T11:51:29.745Z,100745.00
2023-03-27T11:54:58.728Z,100753.00
2023-03-27T11:58:20.669Z,100772.69
2023-03-27T12:01:28.931Z,100768.16
2023-03-27T12:04:49.469Z,100759.13
2023-03-27T12:08:19.643Z,100755.69
2023-03-27T12:11:27.974Z,100752.25
2023-03-27T12:14:49.997Z,100756.38
2023-03-27T12:18:03.882Z,100771.16
2023-03-27T12:21:18.053Z,100750.63
2023-03-27T12:24:59.056Z,100757.66
2023-03-27T12:28:44.736Z,100759.44
2023-03-27T12:32:19.601Z,100767.78
2023-03-27T12:35:28.287Z,100765.09
2023-03-27T12:38:37.571Z,100765.50
2023-03-27T12:41:46.260Z,100765.13
2023-03-27T12:45:15.919Z,100780.16
2023-03-27T12:48:30.316Z,100785.09
2023-03-27T12:51:43.297Z,100780.44
2023-03-27T12:55:31.116Z,100780.22
2023-03-27T12:58:38.499Z,100773.94
2023-03-27T13:02:51.189Z,100771.84
2023-03-27T13:06:17.181Z,100794.97
2023-03-27T13:09:37.198Z,100792.28
2023-03-27T13:13:07.184Z,100819.78
2023-03-27T13:16:33.533Z,100828.72
2023-03-27T13:19:54.701Z,100831.47
2023-03-27T13:23:22.249Z,100847.91
2023-03-27T13:26:49.002Z,100845.34
2023-03-27T13:29:54.141Z,100858.34
2023-03-27T13:33:17.387Z,100851.59
2023-03-27T13:36:24.725Z,100853.28
2023-03-27T13:39:41.194Z,100853.03
2023-03-27T13:42:47.696Z,100864.78
2023-03-27T13:46:01.343Z,100859.59
2023-03-27T13:50:00.696Z,100854.00
2023-03-27T13:53:28.467Z,100847.81
2023-03-27T13:56:54.586Z,100843.72
2023-03-27T14:00:48.912Z,100856.00
2023-03-27T14:04:29.512Z,100863.38
2023-03-27T14:08:05.724Z,100858.44
2023-03-27T14:11:46.090Z,100857.41
2023-03-27T14:15:38.907Z,100856.53
2023-03-27T14:19:32.592Z,100859.56
2023-03-27T14:22:44.954Z,100849.34
2023-03-27T14:25:57.873Z,100838.06
2023-03-27T14:29:08.500Z,100846.94
2023-03-27T14:32:18.352Z,100850.19
2023-03-27T14:35:35.960Z,100843.47
2023-03-27T14:38:41.552Z,100848.63
2023-03-27T14:41:55.563Z,100847.72
2023-03-27T14:45:20.728Z,100847.56
2023-03-27T14:48:30.274Z,100845.13
2023-03-27T14:51:42.127Z,100847.97
2023-03-27T14:54:55.552Z,100843.19
2023-03-27T14:58:11.497Z,100848.75
2023-03-27T15:01:21.931Z,100850.69
2023-03-27T15:04:31.545Z,100846.16
2023-03-27T15:07:38.168Z,100853.81
2023-03-27T15:10:52.195Z,100850.88
2023-03-27T15:14:18.405Z,100851.31
2023-03-27T15:17:23.632Z,100855.84
2023-03-27T15:20:31.793Z,100852.66
2023-03-27T15:23:41.478Z,100842.75
2023-03-27T15:26:44.953Z,100846.06
2023-03-27T15:29:53.376Z,100847.22
2023-03-27T15:33:01.919Z,100847.06
2023-03-27T15:36:10.117Z,100851.53
2023-03-27T15:39:22.205Z,100858.53
2023-03-27T15:42:25.176Z,100859.06
2023-03-27T15:45:39.819Z,100855.88
2023-03-27T15:48:46.011Z,100862.03
2023-03-27T15:51:49.137Z,100855.59
2023-03-27T15:54:57.070Z,100853.94
2023-03-27T15:58:01.936Z,100860.91
2023-03-27T16:01:18.439Z,100864.78
2023-03-27T16:04:28.988Z,100869.00
2023-03-27T16:07:45.098Z,100873.66
2023-03-27T16:10:48.953Z,100870.31
2023-03-27T16:13:56.707Z,100886.63
2023-03-27T16:17:24.815Z,100872.16
2023-03-27T16:20:40.098Z,100875.91
2023-03-27T16:23:44.255Z,100888.22
2023-03-27T16:26:47.763Z,100903.06
2023-03-27T16:29:51.453Z,100933.22
2023-03-27T16:33:01.951Z,100951.28
2023-03-27T16:36:10.137Z,100944.41
2023-03-27T16:39:23.571Z,100950.28
2023-03-27T16:42:27.169Z,100945.69
2023-03-27T16:45:32.172Z,100930.84
2023-03-27T16:48:38.034Z,100938.16
2023-03-27T16:51:44.565Z,100937.13
2023-03-27T16:54:51.439Z,100940.25
2023-03-27T16:57:55.151Z,100946.41
2023-03-27T17:00:59.171Z,100947.75
2023-03-27T17:04:02.231Z,100953.66
2023-03-27T17:07:11.682Z,100953.78
2023-03-27T17:10:15.456Z,100957.03
2023-03-27T17:13:31.848Z,100954.81
2023-03-27T17:16:37.555Z,100966.44
2023-03-27T17:19:40.817Z,100974.81
2023-03-27T17:22:45.559Z,100976.56
2023-03-27T17:25:49.020Z,100992.13
2023-03-27T17:28:53.365Z,101000.69
2023-03-27T17:32:00.840Z,101003.03
2023-03-27T17:35:05.056Z,101004.13
2023-03-27T17:38:10.435Z,101010.34
2023-03-27T17:41:14.606Z,101020.22
2023-03-27T17:44:18.514Z,101009.91
2023-03-27T17:47:21.702Z,101020.28
2023-03-27T17:50:25.562Z,101024.59
2023-03-27T17:53:30.263Z,101030.66
2023-03-27T17:56:33.787Z,101019.56
2023-03-27T17:59:38.790Z,101015.31
2023-03-27T18:02:45.063Z,101021.34
2023-03-27T18:05:48.236Z,101016.97
2023-03-27T18:08:52.557Z,101018.69
2023-03-27T18:11:57.979Z,101016.09
2023-03-27T18:15:09.592Z,101012.13
2023-03-27T18:18:13.169Z,101016.38
2023-03-27T18:21:19.567Z,101019.78
2023-03-27T18:24:25.571Z,101015.25
2023-03-27T18:27:28.629Z,101011.16
2023-03-27T18:30:32.385Z,101018.78
2023-03-27T18:33:38.693Z,101013.63
2023-03-27T18:36:42.449Z,101018.69
2023-03-27T18:39:46.975Z,101028.09
2023-03-27T18:42:50.521Z,101027.94
2023-03-27T18:45:58.008Z,101053.72
2023-03-27T18:49:13.507Z,101037.88
2023-03-27T18:52:20.901Z,101038.66
2023-03-27T18:55:27.066Z,101044.84
2023-03-27T18:58:30.704Z,101043.25
2023-03-27T19:01:34.923Z,101041.00
2023-03-27T19:04:37.983Z,101032.50
2023-03-27T19:07:44.397Z,101029.34
2023-03-27T19:10:49.685Z,101025.88
2023-03-27T19:14:18.686Z,101020.81
2023-03-27T19:17:50.666Z,101019.94
2023-03-27T19:21:13.114Z,101021.66
2023-03-27T19:24:23.570Z,101020.88
2023-03-27T19:27:38.605Z,101014.22
2023-03-27T19:30:42.916Z,101014.09
2023-03-27T19:33:46.176Z,101017.00
2023-03-27T19:36:52.316Z,101011.84
2023-03-27T19:39:55.660Z,101017.78
2023-03-27T19:42:59.968Z,101019.38
2023-03-27T19:46:14.766Z,101010.06
2023-03-27T19:49:19.866Z,101021.16
2023-03-27T19:52:34.459Z,101023.03
2023-03-27T19:55:37.920Z,101018.00
2023-03-27T19:58:42.282Z,101010.22
2023-03-27T20:01:45.370Z,101011.03
2023-03-27T20:04:48.429Z,101014.53
2023-03-27T20:07:54.574Z,101010.97
2023-03-27T20:10:57.737Z,101015.16
2023-03-27T20:14:02.342Z,101009.16
2023-03-27T20:17:12.244Z,100996.28
2023-03-27T20:20:26.080Z,101000.47
2023-03-27T20:23:31.808Z,101007.28
2023-03-27T20:26:39.661Z,100995.22
2023-03-27T20:29:49.912Z,100999.69
2023-03-27T20:32:53.231Z,100992.75
2023-03-27T20:35:56.488Z,100985.16
2023-03-27T20:38:59.668Z,100981.03
2023-03-27T20:42:03.725Z,100982.81
2023-03-27T20:45:16.355Z,100988.03
2023-03-27T20:48:21.857Z,100991.44
2023-03-27T20:51:27.677Z,100991.44
2023-03-27T20:54:35.887Z,100997.63
2023-03-27T20:57:42.876Z,100989.22
2023-03-27T21:00:48.796Z,100987.53
2023-03-27T21:03:53.677Z,100991.84
2023-03-27T21:06:57.729Z,100981.78
2023-03-27T21:10:00.866Z,100993.59
2023-03-27T21:13:04.387Z,100991.09
2023-03-27T21:16:09.859Z,100974.09
2023-03-27T21:19:13.191Z,100975.88
2023-03-27T21:22:17.104Z,100968.22
2023-03-27T21:25:20.824Z,100963.22
2023-03-27T21:28:27.562Z,100972.81
2023-03-27T21:31:32.234Z,100969.28
2023-03-27T21:34:35.813Z,100971.28
2023-03-27T21:37:38.992Z,100973.09
2023-03-27T21:40:42.208Z,100971.53
2023-03-27T21:43:45.528Z,100976.78
2023-03-27T21:46:49.801Z,100978.44
2023-03-27T21:49:52.761Z,100977.69
2023-03-27T21:52:55.782Z,100968.84
2023-03-27T21:55:59.118Z,100972.31
2023-03-27T21:59:02.313Z,100973.28
2023-03-27T22:02:06.717Z,100968.97
2023-03-27T22:05:10.368Z,100970.63
2023-03-27T22:08:17.183Z,100988.47
2023-03-27T22:11:20.778Z,100984.06
2023-03-27T22:14:26.514Z,100985.78
2023-03-27T22:17:31.139Z,100982.19
2023-03-27T22:20:34.621Z,100991.59
2023-03-27T22:23:39.590Z,100984.88
2023-03-27T22:26:45.202Z,100999.41
2023-03-27T22:29:50.704Z,100988.84
2023-03-27T22:32:56.306Z,101011.91
2023-03-27T22:35:59.599Z,101005.09
2023-03-27T22:39:03.848Z,101014.53
2023-03-27T22:42:09.109Z,101020.53
2023-03-27T22:45:12.754Z,101008.53
2023-03-27T22:48:17.598Z,101017.13
2023-03-27T22:51:23.174Z,101018.78
2023-03-27T22:54:26.352Z,101014.44
2023-03-27T22:57:30.296Z,101019.50
2023-03-27T23:00:33.388Z,101008.44
2023-03-27T23:03:39.347Z,101015.31
2023-03-27T23:06:42.491Z,101022.25
2023-03-27T23:09:50.417Z,101015.22
2023-03-27T23:12:58.747Z,101018.47
2023-03-27T23:16:02.404Z,101014.34
2023-03-27T23:19:07.048Z,101016.81
2023-03-27T23:22:10.469Z,101021.03
2023-03-27T23:25:16.265Z,101022.84
2023-03-27T23:28:22.400Z,101030.59
2023-03-27T23:31:28.412Z,101032.22
2023-03-27T23:34:35.939Z,101034.91
2023-03-27T23:37:39.118Z,101031.63
2023-03-27T23:40:45.630Z,101040.06
2023-03-27T23:43:49.272Z,101038.41
2023-03-27T23:46:55.264Z,101036.78
2023-03-27T23:49:59.610Z,101065.63
2023-03-27T23:53:02.590Z,101100.69
2023-03-27T23:56:09.049Z,101126.13
2023-03-27T23:59:12.001Z,101107.88
